Watersmeet, Michigan
Current Conditions -  °F | °C
As of 1:15 AM on Sunday 23 Nov 2014 (Local Time) from KLNL Reporting Station
Haze Haze  
Wind Chill: 32°   Ceiling: 200
Heat Index: 36°   Visibility: 0.75mi
Dew Point: 36°   Wind: 5mph
Humidity: 100%   Direction: 180°S
Pressure: 29.62"   Gusts: NA
Location:  46.27°N, 89.18°W
Report Text: KLNL 230715Z AUTO 18004KT 3/4SM BR OVC002 02/02 A2962 RMK AO2 T00200020
Loading
Personal Weather Stations






























Interactive Weather Map New forecast layout! Learn more

10-Day Weather Forecast

Advertisements
Track Severe Weather on mobile